createdAt,value
2019-04-30T00:00:06.242Z,10.23
2019-04-30T00:01:07.481Z,10.23
2019-04-30T00:02:05.794Z,10.20
2019-04-30T00:03:06.828Z,10.15
2019-04-30T00:04:06.107Z,10.15
2019-04-30T00:05:09.933Z,10.23
2019-04-30T00:06:07.509Z,10.29
2019-04-30T00:07:10.179Z,10.30
2019-04-30T00:08:06.858Z,10.29
2019-04-30T00:09:09.821Z,10.34
2019-04-30T00:10:07.225Z,10.30
2019-04-30T00:11:10.734Z,10.30
2019-04-30T00:12:07.601Z,10.29
2019-04-30T00:13:10.401Z,10.38
2019-04-30T00:14:07.969Z,10.30
2019-04-30T00:15:10.981Z,10.36
2019-04-30T00:16:08.348Z,10.33
2019-04-30T00:17:10.675Z,10.34
2019-04-30T00:18:08.719Z,10.41
2019-04-30T00:19:10.550Z,10.29
2019-04-30T00:20:09.082Z,10.32
2019-04-30T00:21:09.987Z,10.33
2019-04-30T00:22:09.449Z,10.30
2019-04-30T00:23:09.650Z,10.26
2019-04-30T00:24:10.394Z,10.30
2019-04-30T00:25:10.031Z,10.29
2019-04-30T00:26:10.592Z,10.27
2019-04-30T00:27:10.402Z,10.29
2019-04-30T00:28:10.587Z,10.29
2019-04-30T00:29:10.773Z,10.25
2019-04-30T00:30:10.980Z,10.18
2019-04-30T00:31:11.145Z,10.09
2019-04-30T00:32:11.332Z,10.08
2019-04-30T00:33:15.246Z,10.07
2019-04-30T00:34:11.702Z,10.07
2019-04-30T00:35:15.507Z,10.05
2019-04-30T00:36:12.076Z,10.02
2019-04-30T00:37:13.960Z,10.12
2019-04-30T00:38:12.446Z,10.07
2019-04-30T00:39:13.228Z,9.99
2019-04-30T00:40:12.818Z,10.02
2019-04-30T00:41:13.003Z,9.91
2019-04-30T00:42:18.714Z,9.99
2019-04-30T00:43:13.385Z,9.96
2019-04-30T00:44:15.156Z,9.97
2019-04-30T00:45:15.325Z,9.94
2019-04-30T00:46:17.315Z,9.79
2019-04-30T00:47:15.424Z,9.66
2019-04-30T00:48:19.401Z,9.76
2019-04-30T00:49:18.563Z,9.83
2019-04-30T00:50:14.998Z,9.72
2019-04-30T00:51:20.969Z,9.58
2019-04-30T00:52:15.456Z,9.65
2019-04-30T00:53:16.659Z,9.60
2019-04-30T00:54:17.689Z,9.58
2019-04-30T00:55:15.600Z,9.53
2019-04-30T00:56:19.662Z,9.48
2019-04-30T00:57:15.970Z,9.40
2019-04-30T00:58:19.692Z,9.35
2019-04-30T00:59:16.349Z,9.32
2019-04-30T01:00:19.631Z,9.36
2019-04-30T01:01:16.717Z,9.33
2019-04-30T01:02:19.969Z,9.31
2019-04-30T01:03:17.094Z,9.40
2019-04-30T01:04:19.340Z,9.36
2019-04-30T01:05:17.470Z,9.38
2019-04-30T01:06:24.650Z,9.35
2019-04-30T01:07:17.851Z,9.31
2019-04-30T01:08:21.203Z,9.32
2019-04-30T01:09:18.204Z,9.29
2019-04-30T01:10:19.655Z,9.20
2019-04-30T01:11:18.598Z,9.23
2019-04-30T01:12:25.306Z,9.13
2019-04-30T01:13:19.309Z,9.15
2019-04-30T01:14:23.135Z,9.15
2019-04-30T01:15:19.336Z,9.29
2019-04-30T01:16:19.623Z,9.24
2019-04-30T01:17:19.714Z,9.15
2019-04-30T01:18:23.618Z,9.15
2019-04-30T01:19:29.132Z,9.20
2019-04-30T01:20:24.019Z,9.15
2019-04-30T01:21:20.457Z,9.20
2019-04-30T01:22:27.871Z,9.15
2019-04-30T01:23:20.823Z,9.17
2019-04-30T01:24:23.513Z,9.11
2019-04-30T01:25:21.196Z,9.18
2019-04-30T01:26:22.860Z,9.18
2019-04-30T01:27:21.566Z,9.15
2019-04-30T01:28:24.193Z,9.10
2019-04-30T01:29:21.942Z,9.01
2019-04-30T01:30:22.838Z,9.02
2019-04-30T01:31:22.312Z,8.99
2019-04-30T01:32:22.494Z,8.89
2019-04-30T01:33:22.678Z,8.87
2019-04-30T01:34:22.871Z,8.92
2019-04-30T01:35:23.776Z,8.91
2019-04-30T01:36:23.242Z,8.94
2019-04-30T01:37:28.311Z,8.95
2019-04-30T01:38:23.610Z,8.95
2019-04-30T01:39:27.907Z,8.95
2019-04-30T01:40:23.982Z,8.94
2019-04-30T01:41:27.552Z,8.84
2019-04-30T01:42:24.346Z,8.89
2019-04-30T01:43:31.741Z,8.83
2019-04-30T01:44:24.713Z,8.87
2019-04-30T01:45:28.225Z,8.84
2019-04-30T01:46:25.083Z,8.77
2019-04-30T01:47:27.884Z,8.86
2019-04-30T01:48:25.448Z,8.86
2019-04-30T01:49:26.741Z,8.81
2019-04-30T01:50:25.815Z,8.77
2019-04-30T01:51:26.002Z,8.76
2019-04-30T01:52:29.252Z,8.81
2019-04-30T01:53:26.365Z,8.79
2019-04-30T01:54:26.555Z,8.79
2019-04-30T01:55:26.737Z,8.79
2019-04-30T01:56:28.829Z,8.77
2019-04-30T01:57:29.142Z,8.66
2019-04-30T01:58:29.966Z,8.66
2019-04-30T01:59:29.096Z,8.68
2019-04-30T02:00:29.313Z,8.70
2019-04-30T02:01:28.611Z,8.65
2019-04-30T02:02:28.643Z,8.76
2019-04-30T02:03:29.169Z,8.66
2019-04-30T02:04:28.992Z,8.74
2019-04-30T02:05:28.831Z,8.71
2019-04-30T02:06:29.462Z,8.59
2019-04-30T02:07:28.952Z,8.63
2019-04-30T02:08:29.511Z,8.66
2019-04-30T02:09:29.319Z,8.58
2019-04-30T02:10:29.506Z,8.59
2019-04-30T02:11:29.686Z,8.58
2019-04-30T02:12:29.873Z,8.58
2019-04-30T02:13:34.341Z,8.63
2019-04-30T02:14:30.246Z,8.71
2019-04-30T02:15:30.429Z,8.62
2019-04-30T02:16:30.619Z,8.66
2019-04-30T02:17:30.792Z,8.74
2019-04-30T02:18:30.975Z,8.56
2019-04-30T02:19:31.288Z,8.61
2019-04-30T02:20:31.345Z,8.56
2019-04-30T02:21:33.360Z,8.76
2019-04-30T02:22:31.713Z,8.59
2019-04-30T02:23:31.900Z,8.65
2019-04-30T02:24:32.107Z,8.53
2019-04-30T02:25:32.272Z,8.44
2019-04-30T02:26:32.456Z,8.48
2019-04-30T02:27:32.642Z,8.48
2019-04-30T02:28:32.836Z,8.47
2019-04-30T02:29:33.015Z,8.38
2019-04-30T02:30:33.204Z,8.45
2019-04-30T02:31:33.390Z,8.44
2019-04-30T02:32:33.568Z,8.37
2019-04-30T02:33:33.759Z,8.29
2019-04-30T02:34:33.937Z,8.29
2019-04-30T02:35:34.129Z,8.20
2019-04-30T02:36:34.313Z,8.25
2019-04-30T02:37:34.492Z,8.20
2019-04-30T02:38:34.675Z,8.19
2019-04-30T02:39:34.865Z,8.19
2019-04-30T02:40:35.051Z,8.12
2019-04-30T02:41:35.229Z,8.16
2019-04-30T02:42:35.419Z,8.16
2019-04-30T02:43:35.604Z,8.07
2019-04-30T02:44:35.791Z,8.18
2019-04-30T02:45:35.986Z,8.10
2019-04-30T02:46:36.166Z,8.12
2019-04-30T02:47:36.342Z,8.10
2019-04-30T02:48:39.382Z,8.02
2019-04-30T02:49:36.711Z,8.01
2019-04-30T02:50:39.208Z,8.11
2019-04-30T02:51:39.772Z,8.15
2019-04-30T02:52:37.258Z,8.18
2019-04-30T02:53:40.127Z,8.02
2019-04-30T02:54:39.656Z,8.11
2019-04-30T02:55:40.324Z,8.11
2019-04-30T02:56:40.017Z,8.18
2019-04-30T02:57:40.150Z,8.15
2019-04-30T02:58:40.934Z,8.15
2019-04-30T02:59:40.298Z,8.11
2019-04-30T03:00:39.351Z,8.04
2019-04-30T03:01:40.317Z,8.02
2019-04-30T03:02:39.555Z,7.95
2019-04-30T03:03:42.493Z,8.02
2019-04-30T03:04:39.654Z,8.01
2019-04-30T03:05:39.649Z,7.98
2019-04-30T03:06:40.465Z,7.95
2019-04-30T03:07:40.722Z,7.98
2019-04-30T03:08:40.502Z,7.98
2019-04-30T03:09:40.389Z,7.95
2019-04-30T03:10:40.596Z,8.00
2019-04-30T03:11:41.146Z,7.90
2019-04-30T03:12:40.960Z,7.97
2019-04-30T03:13:42.858Z,8.04
2019-04-30T03:14:41.313Z,8.01
2019-04-30T03:15:41.505Z,8.07
2019-04-30T03:16:41.691Z,8.01
2019-04-30T03:17:41.876Z,8.00
2019-04-30T03:18:42.055Z,8.00
2019-04-30T03:19:42.237Z,8.01
2019-04-30T03:20:42.417Z,7.98
2019-04-30T03:21:42.608Z,8.02
2019-04-30T03:22:42.795Z,7.97
2019-04-30T03:23:42.973Z,8.01
2019-04-30T03:24:43.221Z,8.00
2019-04-30T03:25:43.347Z,8.02
2019-04-30T03:26:43.538Z,7.98
2019-04-30T03:27:43.719Z,7.97
2019-04-30T03:28:43.905Z,8.01
2019-04-30T03:29:44.092Z,7.98
2019-04-30T03:30:44.278Z,8.00
2019-04-30T03:31:45.589Z,8.01
2019-04-30T03:32:50.787Z,8.02
2019-04-30T03:33:44.815Z,8.00
2019-04-30T03:34:45.012Z,7.86
2019-04-30T03:35:47.808Z,7.86
2019-04-30T03:36:45.367Z,7.89
2019-04-30T03:37:45.545Z,7.86
2019-04-30T03:38:45.742Z,7.86
2019-04-30T03:39:45.926Z,7.89
2019-04-30T03:40:46.108Z,7.80
2019-04-30T03:41:46.291Z,7.85
2019-04-30T03:42:49.288Z,7.89
2019-04-30T03:43:46.672Z,7.80
2019-04-30T03:44:49.423Z,7.77
2019-04-30T03:45:49.727Z,7.74
2019-04-30T03:46:49.806Z,7.77
2019-04-30T03:47:50.233Z,7.77
2019-04-30T03:48:50.185Z,7.75
2019-04-30T03:49:49.934Z,7.72
2019-04-30T03:50:53.406Z,7.61
2019-04-30T03:51:49.890Z,7.74
2019-04-30T03:52:50.403Z,7.67
2019-04-30T03:53:50.102Z,7.57
2019-04-30T03:54:49.429Z,7.57
2019-04-30T03:55:50.532Z,7.52
2019-04-30T03:56:50.251Z,7.61
2019-04-30T03:57:51.978Z,7.61
2019-04-30T03:58:50.323Z,7.63
2019-04-30T03:59:50.072Z,7.57
2019-04-30T04:00:50.303Z,7.52
2019-04-30T04:01:50.038Z,7.46
2019-04-30T04:02:50.360Z,7.52
2019-04-30T04:03:50.336Z,7.52
2019-04-30T04:04:52.654Z,7.50
2019-04-30T04:05:50.710Z,7.45
2019-04-30T04:06:50.897Z,7.53
2019-04-30T04:07:53.143Z,7.57
2019-04-30T04:08:51.267Z,7.61
2019-04-30T04:09:51.448Z,7.53
2019-04-30T04:10:53.008Z,7.52
2019-04-30T04:11:51.823Z,7.55
2019-04-30T04:12:52.003Z,7.58
2019-04-30T04:13:52.195Z,7.69
2019-04-30T04:14:52.376Z,7.68
2019-04-30T04:15:52.578Z,7.67
2019-04-30T04:16:52.737Z,7.64
2019-04-30T04:17:52.926Z,7.69
2019-04-30T04:18:53.112Z,7.71
2019-04-30T04:19:53.295Z,7.83
2019-04-30T04:21:07.455Z,7.82
2019-04-30T04:21:53.661Z,7.77
2019-04-30T04:22:53.843Z,7.82
2019-04-30T04:23:54.028Z,7.82
2019-04-30T04:24:54.226Z,7.74
2019-04-30T04:25:54.398Z,7.90
2019-04-30T04:26:54.585Z,7.98
2019-04-30T04:27:54.767Z,7.83
2019-04-30T04:28:54.951Z,7.79
2019-04-30T04:29:55.123Z,7.61
2019-04-30T04:30:55.323Z,7.82
2019-04-30T04:31:55.503Z,8.05
2019-04-30T04:32:55.699Z,8.02
2019-04-30T04:33:55.881Z,8.04
2019-04-30T04:34:56.077Z,8.16
2019-04-30T04:35:56.254Z,8.15
2019-04-30T04:36:56.443Z,8.37
2019-04-30T04:37:56.621Z,8.36
2019-04-30T04:38:56.812Z,8.36
2019-04-30T04:39:59.329Z,8.53
2019-04-30T04:41:02.615Z,8.81
2019-04-30T04:41:59.785Z,8.84
2019-04-30T04:43:00.072Z,8.89
2019-04-30T04:44:00.130Z,8.81
2019-04-30T04:44:59.571Z,8.94
2019-04-30T04:45:59.475Z,9.32
2019-04-30T04:47:00.151Z,9.15
2019-04-30T04:48:00.017Z,9.38
2019-04-30T04:48:59.626Z,9.54
2019-04-30T04:50:00.657Z,9.68
2019-04-30T04:51:00.057Z,9.96
2019-04-30T04:51:59.351Z,10.15
2019-04-30T04:52:59.609Z,10.18
2019-04-30T04:54:00.111Z,10.60
2019-04-30T04:55:00.546Z,10.74
2019-04-30T04:56:00.123Z,11.29
2019-04-30T04:57:14.000Z,11.64
2019-04-30T04:58:00.357Z,11.55
2019-04-30T04:59:00.545Z,11.72
2019-04-30T05:00:07.110Z,11.70
2019-04-30T05:01:00.921Z,12.07
2019-04-30T05:02:01.111Z,12.38
2019-04-30T05:03:01.346Z,12.57
2019-04-30T05:04:01.480Z,12.68
2019-04-30T05:05:01.670Z,13.10
2019-04-30T05:06:02.694Z,12.72
2019-04-30T05:07:02.051Z,12.95
2019-04-30T05:08:02.229Z,13.45
2019-04-30T05:09:02.442Z,13.42
2019-04-30T05:10:02.604Z,13.73
2019-04-30T05:11:02.804Z,13.11
2019-04-30T05:12:02.985Z,13.26
2019-04-30T05:13:03.185Z,12.35
2019-04-30T05:14:03.358Z,12.92
2019-04-30T05:15:03.562Z,12.93
2019-04-30T05:16:03.764Z,13.39
2019-04-30T05:17:03.941Z,13.87
2019-04-30T05:18:04.141Z,13.82
2019-04-30T05:19:04.328Z,13.14
2019-04-30T05:20:04.515Z,13.30
2019-04-30T05:21:04.716Z,13.97
2019-04-30T05:22:04.894Z,14.17
2019-04-30T05:23:05.085Z,14.04
2019-04-30T05:24:05.266Z,13.59
2019-04-30T05:25:05.465Z,14.20
2019-04-30T05:26:05.665Z,13.84
2019-04-30T05:27:05.859Z,14.12
2019-04-30T05:28:06.069Z,14.62
2019-04-30T05:29:06.280Z,14.45
2019-04-30T05:30:06.470Z,14.09
2019-04-30T05:31:08.671Z,13.70
2019-04-30T05:32:06.854Z,14.24
2019-04-30T05:33:08.719Z,14.55
2019-04-30T05:34:10.071Z,15.41
2019-04-30T05:35:09.381Z,15.02
2019-04-30T05:36:09.249Z,15.35
2019-04-30T05:37:09.038Z,14.21
2019-04-30T05:38:09.285Z,14.94
2019-04-30T05:39:08.691Z,15.21
2019-04-30T05:40:09.217Z,15.47
2019-04-30T05:41:09.345Z,15.02
2019-04-30T05:42:08.872Z,14.88
2019-04-30T05:43:11.231Z,15.46
2019-04-30T05:44:09.255Z,15.35
2019-04-30T05:45:09.605Z,15.78
2019-04-30T05:46:11.038Z,14.84
2019-04-30T05:47:09.787Z,15.43
2019-04-30T05:48:09.979Z,15.59
2019-04-30T05:49:10.182Z,15.96
2019-04-30T05:50:10.381Z,16.50
2019-04-30T05:51:10.576Z,15.20
2019-04-30T05:52:11.647Z,15.35
2019-04-30T05:53:10.974Z,15.87
2019-04-30T05:54:11.168Z,16.52
2019-04-30T05:55:11.367Z,16.78
2019-04-30T05:56:11.562Z,17.18
2019-04-30T05:57:11.772Z,17.37
2019-04-30T05:58:11.966Z,16.79
2019-04-30T05:59:12.174Z,16.66
2019-04-30T06:00:12.379Z,16.73
2019-04-30T06:01:12.577Z,16.33
2019-04-30T06:02:12.770Z,16.58
2019-04-30T06:03:24.950Z,16.81
2019-04-30T06:04:13.153Z,16.78
2019-04-30T06:05:13.355Z,17.00
2019-04-30T06:06:13.550Z,17.38
2019-04-30T06:07:13.746Z,16.57
2019-04-30T06:08:13.938Z,16.81
2019-04-30T06:09:22.567Z,17.11
2019-04-30T06:10:14.329Z,16.66
2019-04-30T06:11:14.525Z,16.63
2019-04-30T06:12:14.720Z,17.71
2019-04-30T06:13:14.922Z,17.96
2019-04-30T06:14:15.120Z,16.53
2019-04-30T06:15:15.314Z,16.86
2019-04-30T06:16:15.518Z,17.22
2019-04-30T06:17:15.717Z,17.26
2019-04-30T06:18:15.914Z,17.08
2019-04-30T06:19:16.110Z,17.19
2019-04-30T06:20:19.184Z,17.34
2019-04-30T06:21:16.501Z,17.21
2019-04-30T06:22:16.697Z,17.23
2019-04-30T06:23:16.905Z,17.55
2019-04-30T06:24:18.767Z,17.97
2019-04-30T06:25:30.566Z,18.15
2019-04-30T06:26:20.465Z,17.54
2019-04-30T06:27:19.147Z,16.71
2019-04-30T06:28:19.505Z,16.41
2019-04-30T06:29:18.981Z,16.50
2019-04-30T06:30:19.815Z,17.07
2019-04-30T06:31:31.260Z,17.92
2019-04-30T06:32:18.842Z,18.65
2019-04-30T06:33:19.319Z,19.06
2019-04-30T06:34:19.785Z,18.32
2019-04-30T06:35:19.479Z,17.81
2019-04-30T06:36:19.503Z,17.71
2019-04-30T06:37:19.680Z,18.37
2019-04-30T06:38:19.875Z,18.41
2019-04-30T06:39:20.074Z,18.85
2019-04-30T06:40:20.274Z,19.25
2019-04-30T06:41:20.476Z,19.18
2019-04-30T06:42:20.680Z,19.23
2019-04-30T06:43:20.874Z,19.46
2019-04-30T06:44:21.074Z,20.36
2019-04-30T06:45:21.273Z,19.83
2019-04-30T06:46:21.470Z,20.03
2019-04-30T06:47:32.333Z,18.92
2019-04-30T06:48:21.871Z,18.15
2019-04-30T06:49:22.070Z,18.10
2019-04-30T06:50:22.272Z,18.73
2019-04-30T06:51:22.464Z,17.81
2019-04-30T06:52:23.697Z,17.81
2019-04-30T06:53:22.862Z,16.96
2019-04-30T06:54:23.061Z,16.93
2019-04-30T06:55:23.282Z,16.88
2019-04-30T06:56:23.454Z,17.41
2019-04-30T06:57:23.654Z,17.81
2019-04-30T06:58:23.844Z,17.66
2019-04-30T06:59:24.042Z,16.71
2019-04-30T07:00:32.914Z,17.56
2019-04-30T07:01:24.442Z,17.82
2019-04-30T07:02:24.642Z,17.36
2019-04-30T07:03:24.842Z,17.48
2019-04-30T07:04:25.041Z,16.75
2019-04-30T07:05:25.236Z,16.42
2019-04-30T07:06:29.848Z,16.97
2019-04-30T07:07:36.279Z,16.09
2019-04-30T07:08:36.297Z,16.94
2019-04-30T07:09:26.712Z,17.59
2019-04-30T07:10:26.233Z,16.12
2019-04-30T07:11:26.441Z,17.18
2019-04-30T07:12:29.876Z,17.46
2019-04-30T07:13:26.849Z,17.58
2019-04-30T07:14:27.055Z,18.07
2019-04-30T07:15:27.253Z,17.86
2019-04-30T07:16:29.666Z,17.75
2019-04-30T07:17:29.222Z,17.37
2019-04-30T07:18:28.878Z,16.67
2019-04-30T07:19:34.609Z,16.70
2019-04-30T07:20:29.158Z,17.84
2019-04-30T07:21:31.199Z,17.28
2019-04-30T07:22:39.492Z,17.99
2019-04-30T07:23:28.849Z,17.46
2019-04-30T07:24:29.594Z,17.77
2019-04-30T07:25:29.420Z,17.75
2019-04-30T07:26:29.463Z,18.03
2019-04-30T07:27:31.929Z,19.31
2019-04-30T07:28:43.263Z,19.44
2019-04-30T07:29:30.060Z,18.62
2019-04-30T07:30:30.927Z,18.42
2019-04-30T07:31:30.473Z,18.08
2019-04-30T07:32:30.688Z,18.11
2019-04-30T07:33:30.875Z,19.10
2019-04-30T07:34:36.567Z,19.73
2019-04-30T07:35:31.277Z,19.32
2019-04-30T07:36:45.334Z,17.93
2019-04-30T07:37:31.675Z,17.37
2019-04-30T07:38:35.841Z,18.20
2019-04-30T07:39:33.508Z,18.25
2019-04-30T07:40:32.283Z,18.99
2019-04-30T07:41:32.489Z,19.37
2019-04-30T07:42:36.980Z,17.68
2019-04-30T07:43:32.886Z,19.00
2019-04-30T07:44:36.519Z,19.26
2019-04-30T07:45:33.333Z,19.91
2019-04-30T07:46:35.370Z,20.31
2019-04-30T07:47:33.695Z,20.11
2019-04-30T07:48:33.894Z,19.95
2019-04-30T07:49:47.003Z,19.19
2019-04-30T07:50:34.832Z,18.37
2019-04-30T07:51:37.867Z,18.60
2019-04-30T07:52:35.519Z,18.75
2019-04-30T07:53:34.924Z,19.50
2019-04-30T07:54:35.126Z,19.32
2019-04-30T07:55:35.324Z,19.86
2019-04-30T07:56:40.867Z,17.78
2019-04-30T07:57:35.724Z,17.84
2019-04-30T07:58:35.933Z,19.18
2019-04-30T07:59:36.133Z,19.11
2019-04-30T08:00:36.334Z,19.04
2019-04-30T08:01:36.537Z,19.07
2019-04-30T08:02:40.877Z,19.39
2019-04-30T08:03:39.232Z,19.04
2019-04-30T08:04:37.141Z,18.29
2019-04-30T08:05:40.078Z,19.26
2019-04-30T08:06:39.533Z,18.75
2019-04-30T08:07:39.164Z,19.78
2019-04-30T08:08:40.548Z,19.44
2019-04-30T08:09:41.540Z,19.36
2019-04-30T08:10:39.382Z,18.63
2019-04-30T08:11:41.910Z,19.58
2019-04-30T08:12:42.727Z,20.10
2019-04-30T08:13:40.756Z,19.78
2019-04-30T08:14:39.184Z,19.84
2019-04-30T08:15:42.148Z,19.61
2019-04-30T08:16:39.589Z,19.87
2019-04-30T08:17:39.794Z,20.48
2019-04-30T08:18:39.988Z,19.66
2019-04-30T08:19:41.136Z,18.35
2019-04-30T08:20:40.395Z,19.36
2019-04-30T08:21:40.598Z,19.73
2019-04-30T08:22:41.098Z,19.98
2019-04-30T08:23:40.999Z,20.14
2019-04-30T08:24:41.196Z,20.52
2019-04-30T08:25:41.401Z,20.62
2019-04-30T08:26:41.601Z,20.55
2019-04-30T08:27:41.808Z,20.11
2019-04-30T08:28:42.020Z,19.58
2019-04-30T08:29:42.219Z,20.20
2019-04-30T08:30:42.421Z,19.33
2019-04-30T08:31:42.621Z,19.56
2019-04-30T08:32:42.819Z,20.05
2019-04-30T08:33:43.022Z,20.61
2019-04-30T08:34:43.225Z,21.22
2019-04-30T08:35:43.428Z,21.47
2019-04-30T08:36:43.636Z,21.16
2019-04-30T08:37:43.840Z,21.31
2019-04-30T08:38:44.037Z,20.92
2019-04-30T08:39:44.241Z,21.09
2019-04-30T08:40:55.881Z,21.32
2019-04-30T08:41:44.645Z,21.25
2019-04-30T08:42:44.845Z,21.16
2019-04-30T08:43:45.049Z,21.58
2019-04-30T08:44:45.248Z,21.69
2019-04-30T08:45:45.453Z,20.77
2019-04-30T08:46:45.658Z,20.47
2019-04-30T08:47:45.858Z,20.06
2019-04-30T08:48:50.816Z,20.69
2019-04-30T08:49:46.403Z,21.44
2019-04-30T08:50:46.569Z,22.07
2019-04-30T08:51:48.846Z,20.47
2019-04-30T08:52:46.871Z,19.94
2019-04-30T08:53:48.661Z,20.23
2019-04-30T08:54:49.436Z,20.21
2019-04-30T08:55:49.207Z,19.37
2019-04-30T08:56:47.696Z,18.88
2019-04-30T08:57:49.856Z,19.56
2019-04-30T08:58:49.055Z,18.47
2019-04-30T08:59:49.481Z,19.81
2019-04-30T09:00:48.654Z,19.92
2019-04-30T09:01:48.798Z,19.36
2019-04-30T09:02:49.290Z,19.65
2019-04-30T09:03:51.214Z,20.05
2019-04-30T09:04:49.495Z,20.08
2019-04-30T09:05:49.982Z,19.92
2019-04-30T09:06:49.782Z,20.31
2019-04-30T09:07:49.902Z,20.06
2019-04-30T09:08:50.103Z,20.32
2019-04-30T09:09:50.302Z,20.16
2019-04-30T09:10:50.508Z,20.16
2019-04-30T09:11:55.416Z,18.81
2019-04-30T09:12:51.945Z,19.58
2019-04-30T09:13:51.123Z,20.51
2019-04-30T09:14:51.322Z,20.92
2019-04-30T09:15:51.524Z,20.87
2019-04-30T09:16:51.761Z,20.11
2019-04-30T09:18:00.757Z,21.28
2019-04-30T09:18:52.128Z,20.62
2019-04-30T09:19:52.331Z,19.76
2019-04-30T09:20:52.525Z,21.14
2019-04-30T09:21:52.733Z,20.77
2019-04-30T09:22:52.931Z,20.97
2019-04-30T09:23:53.132Z,20.98
2019-04-30T09:24:53.335Z,20.36
2019-04-30T09:25:53.535Z,20.55
2019-04-30T09:26:53.741Z,21.49
2019-04-30T09:27:53.942Z,21.19
2019-04-30T09:28:54.142Z,21.34
2019-04-30T09:29:54.345Z,22.05
2019-04-30T09:30:54.549Z,21.83
2019-04-30T09:31:54.747Z,19.39
2019-04-30T09:32:54.945Z,18.84
2019-04-30T09:33:57.876Z,19.98
2019-04-30T09:34:55.348Z,20.89
2019-04-30T09:35:55.555Z,21.35
2019-04-30T09:36:56.041Z,20.73
2019-04-30T09:38:01.147Z,20.38
2019-04-30T09:38:56.194Z,21.37
2019-04-30T09:39:56.395Z,21.91
2019-04-30T09:40:56.601Z,21.83
2019-04-30T09:41:56.799Z,20.54
2019-04-30T09:42:58.552Z,19.16
2019-04-30T09:43:57.204Z,18.81
2019-04-30T09:44:59.637Z,18.81
2019-04-30T09:45:59.289Z,19.39
2019-04-30T09:46:58.832Z,19.00
2019-04-30T09:47:59.259Z,19.86
2019-04-30T09:48:59.728Z,20.38
2019-04-30T09:49:59.680Z,20.42
2019-04-30T09:51:00.823Z,20.55
2019-04-30T09:51:59.498Z,20.05
2019-04-30T09:53:00.221Z,20.14
2019-04-30T09:54:02.245Z,19.58
2019-04-30T09:54:59.869Z,20.21
2019-04-30T09:55:59.752Z,20.77
2019-04-30T09:56:59.816Z,19.37
2019-04-30T09:58:00.019Z,19.59
2019-04-30T09:59:00.217Z,19.87
2019-04-30T10:00:00.646Z,19.56
2019-04-30T10:01:00.626Z,19.56
2019-04-30T10:02:00.821Z,19.76
2019-04-30T10:03:01.251Z,19.58
2019-04-30T10:04:01.625Z,20.41
2019-04-30T10:05:01.839Z,20.20
2019-04-30T10:06:01.621Z,20.79
2019-04-30T10:07:01.823Z,21.92
2019-04-30T10:08:02.020Z,21.58
2019-04-30T10:09:02.225Z,22.39
2019-04-30T10:10:02.429Z,22.92
2019-04-30T10:11:02.624Z,23.23
2019-04-30T10:12:02.825Z,23.20
2019-04-30T10:13:03.033Z,21.90
2019-04-30T10:14:03.232Z,20.64
2019-04-30T10:15:03.435Z,21.42
2019-04-30T10:16:03.635Z,21.27
2019-04-30T10:17:03.834Z,20.57
2019-04-30T10:18:04.054Z,20.82
2019-04-30T10:19:04.255Z,21.16
2019-04-30T10:20:04.450Z,20.85
2019-04-30T10:21:04.653Z,20.72
2019-04-30T10:22:04.858Z,20.33
2019-04-30T10:23:05.065Z,20.48
2019-04-30T10:24:14.756Z,21.62
2019-04-30T10:25:05.467Z,22.61
2019-04-30T10:26:05.676Z,22.98
2019-04-30T10:27:10.502Z,23.48
2019-04-30T10:28:06.078Z,22.20
2019-04-30T10:29:06.295Z,22.36
2019-04-30T10:30:06.465Z,20.57
2019-04-30T10:31:06.670Z,20.61
2019-04-30T10:32:08.717Z,20.97
2019-04-30T10:33:07.068Z,21.38
2019-04-30T10:34:07.266Z,21.82
2019-04-30T10:35:07.462Z,21.06
2019-04-30T10:36:09.353Z,22.24
2019-04-30T10:37:08.997Z,22.28
2019-04-30T10:38:09.859Z,21.42
2019-04-30T10:39:08.292Z,21.96
2019-04-30T10:40:10.281Z,21.44
2019-04-30T10:41:08.938Z,21.65
2019-04-30T10:42:08.883Z,22.03
2019-04-30T10:43:09.218Z,21.53
2019-04-30T10:44:09.294Z,21.90
2019-04-30T10:45:09.957Z,22.35
2019-04-30T10:46:09.869Z,22.17
2019-04-30T10:47:09.892Z,21.84
2019-04-30T10:48:10.096Z,21.92
2019-04-30T10:49:10.313Z,22.03
2019-04-30T10:50:10.493Z,21.35
2019-04-30T10:51:10.701Z,21.99
2019-04-30T10:52:10.906Z,21.88
2019-04-30T10:53:12.508Z,22.10
2019-04-30T10:54:23.231Z,21.01
2019-04-30T10:55:11.519Z,20.79
2019-04-30T10:56:11.810Z,20.97
2019-04-30T10:57:11.918Z,20.32
2019-04-30T10:58:12.125Z,20.66
2019-04-30T10:59:12.327Z,20.06
2019-04-30T11:00:12.530Z,20.18
2019-04-30T11:01:12.732Z,20.43
2019-04-30T11:02:12.924Z,20.64
2019-04-30T11:03:20.063Z,20.66
2019-04-30T11:04:13.335Z,20.16
2019-04-30T11:05:13.532Z,19.04
2019-04-30T11:06:13.731Z,19.23
2019-04-30T11:07:13.933Z,19.11
2019-04-30T11:08:14.125Z,18.62
2019-04-30T11:09:14.327Z,17.87
2019-04-30T11:10:14.518Z,18.30
2019-04-30T11:11:14.714Z,18.76
2019-04-30T11:12:14.910Z,19.40
2019-04-30T11:13:15.109Z,19.80
2019-04-30T11:14:15.311Z,19.83
2019-04-30T11:15:15.505Z,19.69
2019-04-30T11:16:15.790Z,19.39
2019-04-30T11:17:16.062Z,18.30
2019-04-30T11:18:16.307Z,18.62
2019-04-30T11:19:16.411Z,18.18
2019-04-30T11:20:16.659Z,18.36
2019-04-30T11:21:16.895Z,18.72
2019-04-30T11:22:17.077Z,19.19
2019-04-30T11:23:17.259Z,19.39
2019-04-30T11:24:19.297Z,19.33
2019-04-30T11:25:19.607Z,19.51
2019-04-30T11:26:18.363Z,19.41
2019-04-30T11:27:20.271Z,18.65
2019-04-30T11:28:18.497Z,18.76
2019-04-30T11:29:18.348Z,19.26
2019-04-30T11:30:23.598Z,18.37
2019-04-30T11:31:18.924Z,18.85
2019-04-30T11:32:19.009Z,18.58
2019-04-30T11:33:19.166Z,18.90
2019-04-30T11:34:19.218Z,18.85
2019-04-30T11:35:20.753Z,18.90
2019-04-30T11:36:19.621Z,18.82
2019-04-30T11:37:19.804Z,19.02
2019-04-30T11:38:20.522Z,19.22
2019-04-30T11:39:20.190Z,19.41
2019-04-30T11:40:31.231Z,19.13
2019-04-30T11:41:30.053Z,18.84
2019-04-30T11:42:20.807Z,18.80
2019-04-30T11:43:20.988Z,18.62
2019-04-30T11:44:30.326Z,19.16
2019-04-30T11:45:21.382Z,19.14
2019-04-30T11:46:21.573Z,18.42
2019-04-30T11:47:21.775Z,18.44
2019-04-30T11:48:21.968Z,18.55
2019-04-30T11:49:22.166Z,18.36
2019-04-30T11:50:22.366Z,17.95
2019-04-30T11:51:22.558Z,17.84
2019-04-30T11:52:22.750Z,18.21
2019-04-30T11:53:27.847Z,18.41
2019-04-30T11:54:23.134Z,18.60
2019-04-30T11:55:23.334Z,18.73
2019-04-30T11:56:23.530Z,18.91
2019-04-30T11:57:23.733Z,18.58
2019-04-30T11:58:23.935Z,18.58
2019-04-30T11:59:24.127Z,19.02
2019-04-30T12:00:24.317Z,18.54
2019-04-30T12:01:24.524Z,18.69
2019-04-30T12:02:24.725Z,19.25
2019-04-30T12:03:24.919Z,19.29
2019-04-30T12:04:25.119Z,19.19
2019-04-30T12:05:25.311Z,18.90
2019-04-30T12:06:25.506Z,19.11
2019-04-30T12:07:25.699Z,19.65
2019-04-30T12:08:26.565Z,19.55
2019-04-30T12:09:26.078Z,19.62
2019-04-30T12:10:26.270Z,19.81
2019-04-30T12:11:26.461Z,19.69
2019-04-30T12:12:26.662Z,19.77
2019-04-30T12:13:26.854Z,19.37
2019-04-30T12:14:27.052Z,19.40
2019-04-30T12:15:29.025Z,19.59
2019-04-30T12:16:28.557Z,19.56
2019-04-30T12:17:27.638Z,19.51
2019-04-30T12:18:27.838Z,19.66
2019-04-30T12:19:28.676Z,19.40
2019-04-30T12:20:28.234Z,19.13
2019-04-30T12:21:28.422Z,19.55
2019-04-30T12:22:29.652Z,19.83
2019-04-30T12:23:28.788Z,19.88
2019-04-30T12:24:30.421Z,19.80
2019-04-30T12:25:30.415Z,19.91
2019-04-30T12:26:29.386Z,19.87
2019-04-30T12:27:29.583Z,19.91
2019-04-30T12:28:29.831Z,19.92
2019-04-30T12:29:29.969Z,19.68
2019-04-30T12:30:30.158Z,19.63
2019-04-30T12:31:30.349Z,19.73
2019-04-30T12:32:30.542Z,19.81
2019-04-30T12:33:30.740Z,19.83
2019-04-30T12:34:30.938Z,19.46
2019-04-30T12:35:31.127Z,19.41
2019-04-30T12:36:31.316Z,19.81
2019-04-30T12:37:31.507Z,19.86
2019-04-30T12:38:31.699Z,19.69
2019-04-30T12:39:31.891Z,19.56
2019-04-30T12:40:32.463Z,19.54
2019-04-30T12:41:32.287Z,19.61
2019-04-30T12:42:32.476Z,19.48
2019-04-30T12:43:32.673Z,19.73
2019-04-30T12:44:32.868Z,19.55
2019-04-30T12:45:33.060Z,19.59
2019-04-30T12:46:33.251Z,19.91
2019-04-30T12:47:33.438Z,19.62
2019-04-30T12:48:33.633Z,19.46
2019-04-30T12:49:33.826Z,19.69
2019-04-30T12:50:34.021Z,19.58
2019-04-30T12:51:45.212Z,19.47
2019-04-30T12:52:34.403Z,19.39
2019-04-30T12:53:34.592Z,19.44
2019-04-30T12:54:34.786Z,19.69
2019-04-30T12:55:34.980Z,19.51
2019-04-30T12:56:35.185Z,19.61
2019-04-30T12:57:35.379Z,19.77
2019-04-30T12:58:35.569Z,19.62
2019-04-30T12:59:35.761Z,19.77
2019-04-30T13:00:35.957Z,19.87
2019-04-30T13:01:36.147Z,19.88
2019-04-30T13:02:36.335Z,19.33